sensor_id;sensor_type;location;lat;lon;timestamp;temperature;humidity
27188;DHT22;14708;50.872;5.306;2023-02-01T00:02:11;20.50;57.60
27188;DHT22;14708;50.872;5.306;2023-02-01T00:04:36;20.50;57.40
27188;DHT22;14708;50.872;5.306;2023-02-01T00:07:02;20.50;57.50
27188;DHT22;14708;50.872;5.306;2023-02-01T00:09:40;20.40;57.40
27188;DHT22;14708;50.872;5.306;2023-02-01T00:12:05;20.40;57.40
27188;DHT22;14708;50.872;5.306;2023-02-01T00:14:31;20.40;57.60
27188;DHT22;14708;50.872;5.306;2023-02-01T00:17:04;20.40;57.50
27188;DHT22;14708;50.872;5.306;2023-02-01T00:19:30;20.40;57.60
27188;DHT22;14708;50.872;5.306;2023-02-01T00:21:55;20.30;57.60
27188;DHT22;14708;50.872;5.306;2023-02-01T00:24:21;20.30;57.70
27188;DHT22;14708;50.872;5.306;2023-02-01T00:30:14;20.20;57.60
27188;DHT22;14708;50.872;5.306;2023-02-01T00:32:39;20.20;57.60
27188;DHT22;14708;50.872;5.306;2023-02-01T00:35:05;20.20;57.70
27188;DHT22;14708;50.872;5.306;2023-02-01T00:37:33;20.20;57.60
27188;DHT22;14708;50.872;5.306;2023-02-01T00:39:59;20.20;57.60
27188;DHT22;14708;50.872;5.306;2023-02-01T00:42:43;20.20;58.30
27188;DHT22;14708;50.872;5.306;2023-02-01T00:45:09;20.20;57.70
27188;DHT22;14708;50.872;5.306;2023-02-01T00:47:35;20.10;57.60
27188;DHT22;14708;50.872;5.306;2023-02-01T00:50:01;20.10;57.70
27188;DHT22;14708;50.872;5.306;2023-02-01T00:52:26;20.10;57.70
27188;DHT22;14708;50.872;5.306;2023-02-01T00:54:52;20.10;57.60
27188;DHT22;14708;50.872;5.306;2023-02-01T00:57:17;20.10;57.70
27188;DHT22;14708;50.872;5.306;2023-02-01T00:59:43;20.10;57.60
27188;DHT22;14708;50.872;5.306;2023-02-01T01:08:57;20.00;57.60
27188;DHT22;14708;50.872;5.306;2023-02-01T01:11:26;20.10;57.60
27188;DHT22;14708;50.872;5.306;2023-02-01T01:13:53;20.00;57.60
27188;DHT22;14708;50.872;5.306;2023-02-01T01:16:20;20.00;57.50
27188;DHT22;14708;50.872;5.306;2023-02-01T01:18:46;20.00;57.60
27188;DHT22;14708;50.872;5.306;2023-02-01T01:27:56;19.90;57.70
27188;DHT22;14708;50.872;5.306;2023-02-01T01:30:22;19.90;58.30
27188;DHT22;14708;50.872;5.306;2023-02-01T01:32:47;19.90;57.40
27188;DHT22;14708;50.872;5.306;2023-02-01T01:35:13;19.90;57.60
27188;DHT22;14708;50.872;5.306;2023-02-01T01:37:39;19.90;57.60
27188;DHT22;14708;50.872;5.306;2023-02-01T01:40:05;19.90;57.60
27188;DHT22;14708;50.872;5.306;2023-02-01T01:42:37;19.90;57.50
27188;DHT22;14708;50.872;5.306;2023-02-01T01:45:28;19.90;57.60
27188;DHT22;14708;50.872;5.306;2023-02-01T01:47:59;19.80;57.40
27188;DHT22;14708;50.872;5.306;2023-02-01T01:50:40;19.80;57.40
27188;DHT22;14708;50.872;5.306;2023-02-01T01:56:30;19.80;57.60
27188;DHT22;14708;50.872;5.306;2023-02-01T01:58:57;19.80;57.70
27188;DHT22;14708;50.872;5.306;2023-02-01T02:01:23;19.80;57.70
27188;DHT22;14708;50.872;5.306;2023-02-01T02:03:50;19.80;57.40
27188;DHT22;14708;50.872;5.306;2023-02-01T02:06:41;19.70;57.50
27188;DHT22;14708;50.872;5.306;2023-02-01T02:09:10;19.70;57.50
27188;DHT22;14708;50.872;5.306;2023-02-01T02:11:36;19.70;57.60
27188;DHT22;14708;50.872;5.306;2023-02-01T02:14:03;19.70;57.50
27188;DHT22;14708;50.872;5.306;2023-02-01T02:16:49;19.70;57.60
27188;DHT22;14708;50.872;5.306;2023-02-01T02:22:35;19.70;57.50
27188;DHT22;14708;50.872;5.306;2023-02-01T02:41:31;19.60;57.30
27188;DHT22;14708;50.872;5.306;2023-02-01T02:44:32;19.60;57.20
27188;DHT22;14708;50.872;5.306;2023-02-01T02:54:26;19.60;57.40
27188;DHT22;14708;50.872;5.306;2023-02-01T02:57:16;19.50;57.30
27188;DHT22;14708;50.872;5.306;2023-02-01T03:00:06;19.50;57.30
27188;DHT22;14708;50.872;5.306;2023-02-01T03:02:52;19.50;57.30
27188;DHT22;14708;50.872;5.306;2023-02-01T03:08:58;19.50;57.30
27188;DHT22;14708;50.872;5.306;2023-02-01T03:11:26;19.50;57.30
27188;DHT22;14708;50.872;5.306;2023-02-01T03:14:14;19.50;57.30
27188;DHT22;14708;50.872;5.306;2023-02-01T03:16:50;19.50;57.30
27188;DHT22;14708;50.872;5.306;2023-02-01T03:19:34;19.50;57.20
27188;DHT22;14708;50.872;5.306;2023-02-01T03:22:06;19.50;57.30
27188;DHT22;14708;50.872;5.306;2023-02-01T03:27:52;19.50;57.30
27188;DHT22;14708;50.872;5.306;2023-02-01T03:30:24;19.40;57.00
27188;DHT22;14708;50.872;5.306;2023-02-01T03:32:53;19.40;56.90
27188;DHT22;14708;50.872;5.306;2023-02-01T03:36:02;19.40;57.30
27188;DHT22;14708;50.872;5.306;2023-02-01T03:44:04;19.40;57.20
27188;DHT22;14708;50.872;5.306;2023-02-01T03:49:49;19.30;57.00
27188;DHT22;14708;50.872;5.306;2023-02-01T03:52:23;19.40;57.10
27188;DHT22;14708;50.872;5.306;2023-02-01T03:54:51;19.40;57.00
27188;DHT22;14708;50.872;5.306;2023-02-01T03:57:22;19.40;56.90
27188;DHT22;14708;50.872;5.306;2023-02-01T03:59:49;19.30;57.00
27188;DHT22;14708;50.872;5.306;2023-02-01T04:02:15;19.30;57.10
27188;DHT22;14708;50.872;5.306;2023-02-01T04:04:41;19.40;57.00
27188;DHT22;14708;50.872;5.306;2023-02-01T04:07:16;19.30;57.00
27188;DHT22;14708;50.872;5.306;2023-02-01T04:09:42;19.30;56.90
27188;DHT22;14708;50.872;5.306;2023-02-01T04:12:07;19.30;57.00
27188;DHT22;14708;50.872;5.306;2023-02-01T04:14:33;19.30;56.90
27188;DHT22;14708;50.872;5.306;2023-02-01T04:16:59;19.30;57.10
27188;DHT22;14708;50.872;5.306;2023-02-01T04:19:24;19.30;57.00
27188;DHT22;14708;50.872;5.306;2023-02-01T04:21:50;19.20;56.80
27188;DHT22;14708;50.872;5.306;2023-02-01T04:24:15;19.20;56.90
27188;DHT22;14708;50.872;5.306;2023-02-01T04:26:41;19.20;56.70
27188;DHT22;14708;50.872;5.306;2023-02-01T04:29:09;19.20;57.60
27188;DHT22;14708;50.872;5.306;2023-02-01T04:31:35;19.20;56.90
27188;DHT22;14708;50.872;5.306;2023-02-01T04:34:02;19.20;56.90
27188;DHT22;14708;50.872;5.306;2023-02-01T04:36:27;19.20;56.90
27188;DHT22;14708;50.872;5.306;2023-02-01T04:38:53;19.20;57.00
27188;DHT22;14708;50.872;5.306;2023-02-01T04:41:20;19.20;56.90
27188;DHT22;14708;50.872;5.306;2023-02-01T04:43:48;19.20;56.90
27188;DHT22;14708;50.872;5.306;2023-02-01T04:46:16;19.20;57.00
27188;DHT22;14708;50.872;5.306;2023-02-01T04:52:04;19.10;56.70
27188;DHT22;14708;50.872;5.306;2023-02-01T04:54:30;19.10;56.80
27188;DHT22;14708;50.872;5.306;2023-02-01T04:56:55;19.10;56.80
27188;DHT22;14708;50.872;5.306;2023-02-01T04:59:21;19.10;56.80
27188;DHT22;14708;50.872;5.306;2023-02-01T05:01:46;19.10;56.80
27188;DHT22;14708;50.872;5.306;2023-02-01T05:04:12;19.10;56.60
27188;DHT22;14708;50.872;5.306;2023-02-01T05:10:15;19.10;56.90
27188;DHT22;14708;50.872;5.306;2023-02-01T05:12:46;19.10;56.60
27188;DHT22;14708;50.872;5.306;2023-02-01T05:15:30;19.10;56.80
27188;DHT22;14708;50.872;5.306;2023-02-01T05:17:57;19.00;56.80
27188;DHT22;14708;50.872;5.306;2023-02-01T05:20:23;19.10;56.70
27188;DHT22;14708;50.872;5.306;2023-02-01T05:22:49;19.10;56.50
27188;DHT22;14708;50.872;5.306;2023-02-01T05:25:14;19.00;56.50
27188;DHT22;14708;50.872;5.306;2023-02-01T05:27:42;19.00;56.40
27188;DHT22;14708;50.872;5.306;2023-02-01T05:30:08;19.00;56.60
27188;DHT22;14708;50.872;5.306;2023-02-01T05:32:34;19.00;56.60
27188;DHT22;14708;50.872;5.306;2023-02-01T05:35:00;19.00;56.60
27188;DHT22;14708;50.872;5.306;2023-02-01T05:40:48;19.00;56.60
27188;DHT22;14708;50.872;5.306;2023-02-01T05:43:14;19.00;56.60
27188;DHT22;14708;50.872;5.306;2023-02-01T05:45:40;19.00;56.50
27188;DHT22;14708;50.872;5.306;2023-02-01T05:48:06;19.00;56.80
27188;DHT22;14708;50.872;5.306;2023-02-01T05:50:31;19.00;56.80
27188;DHT22;14708;50.872;5.306;2023-02-01T05:52:57;19.00;56.50
27188;DHT22;14708;50.872;5.306;2023-02-01T05:55:22;19.00;53.10
27188;DHT22;14708;50.872;5.306;2023-02-01T05:57:48;19.10;54.20
27188;DHT22;14708;50.872;5.306;2023-02-01T06:00:13;19.10;55.20
27188;DHT22;14708;50.872;5.306;2023-02-01T06:02:39;19.10;55.40
27188;DHT22;14708;50.872;5.306;2023-02-01T06:05:06;19.10;55.50
27188;DHT22;14708;50.872;5.306;2023-02-01T06:07:32;19.20;55.60
27188;DHT22;14708;50.872;5.306;2023-02-01T06:09:57;19.20;55.70
27188;DHT22;14708;50.872;5.306;2023-02-01T06:12:23;19.30;55.60
27188;DHT22;14708;50.872;5.306;2023-02-01T06:14:49;19.30;55.70
27188;DHT22;14708;50.872;5.306;2023-02-01T06:17:14;19.30;55.70
27188;DHT22;14708;50.872;5.306;2023-02-01T06:19:40;19.20;55.60
27188;DHT22;14708;50.872;5.306;2023-02-01T06:22:05;19.20;55.70
27188;DHT22;14708;50.872;5.306;2023-02-01T06:24:31;19.20;55.80
27188;DHT22;14708;50.872;5.306;2023-02-01T06:26:57;19.30;55.40
27188;DHT22;14708;50.872;5.306;2023-02-01T06:32:53;19.20;55.70
27188;DHT22;14708;50.872;5.306;2023-02-01T06:35:21;19.10;55.80
27188;DHT22;14708;50.872;5.306;2023-02-01T06:37:47;19.10;55.90
27188;DHT22;14708;50.872;5.306;2023-02-01T06:40:12;19.20;55.50
27188;DHT22;14708;50.872;5.306;2023-02-01T06:42:38;19.20;55.70
27188;DHT22;14708;50.872;5.306;2023-02-01T06:45:04;19.20;55.90
27188;DHT22;14708;50.872;5.306;2023-02-01T06:47:33;19.20;56.20
27188;DHT22;14708;50.872;5.306;2023-02-01T06:49:59;19.30;56.70
27188;DHT22;14708;50.872;5.306;2023-02-01T06:52:24;19.40;56.80
27188;DHT22;14708;50.872;5.306;2023-02-01T06:54:50;19.60;57.00
27188;DHT22;14708;50.872;5.306;2023-02-01T06:57:15;19.70;56.90
27188;DHT22;14708;50.872;5.306;2023-02-01T06:59:41;19.80;56.80
27188;DHT22;14708;50.872;5.306;2023-02-01T07:02:12;20.00;56.90
27188;DHT22;14708;50.872;5.306;2023-02-01T07:04:37;20.10;56.80
27188;DHT22;14708;50.872;5.306;2023-02-01T07:07:03;20.20;56.70
27188;DHT22;14708;50.872;5.306;2023-02-01T07:09:29;20.30;55.70
27188;DHT22;14708;50.872;5.306;2023-02-01T07:12:00;20.40;55.60
27188;DHT22;14708;50.872;5.306;2023-02-01T07:14:43;20.50;55.80
27188;DHT22;14708;50.872;5.306;2023-02-01T07:17:09;20.60;55.50
27188;DHT22;14708;50.872;5.306;2023-02-01T07:19:35;20.60;55.20
27188;DHT22;14708;50.872;5.306;2023-02-01T07:22:00;20.60;55.10
27188;DHT22;14708;50.872;5.306;2023-02-01T07:24:29;20.60;55.40
27188;DHT22;14708;50.872;5.306;2023-02-01T07:26:57;20.60;55.40
27188;DHT22;14708;50.872;5.306;2023-02-01T07:29:22;20.60;55.50
27188;DHT22;14708;50.872;5.306;2023-02-01T07:31:48;20.70;55.60
27188;DHT22;14708;50.872;5.306;2023-02-01T07:34:14;20.70;55.50
27188;DHT22;14708;50.872;5.306;2023-02-01T07:36:39;20.70;55.60
27188;DHT22;14708;50.872;5.306;2023-02-01T07:39:05;20.80;55.30
27188;DHT22;14708;50.872;5.306;2023-02-01T07:41:31;20.80;55.50
27188;DHT22;14708;50.872;5.306;2023-02-01T07:43:57;20.80;55.40
27188;DHT22;14708;50.872;5.306;2023-02-01T07:46:23;20.90;55.70
27188;DHT22;14708;50.872;5.306;2023-02-01T07:48:48;20.80;55.30
27188;DHT22;14708;50.872;5.306;2023-02-01T07:51:16;20.80;53.70
27188;DHT22;14708;50.872;5.306;2023-02-01T07:53:43;20.80;53.10
27188;DHT22;14708;50.872;5.306;2023-02-01T07:56:14;20.70;52.10
27188;DHT22;14708;50.872;5.306;2023-02-01T07:58:40;20.70;53.70
27188;DHT22;14708;50.872;5.306;2023-02-01T08:01:06;20.80;54.10
27188;DHT22;14708;50.872;5.306;2023-02-01T08:03:53;20.80;54.50
27188;DHT22;14708;50.872;5.306;2023-02-01T08:06:21;20.90;53.80
27188;DHT22;14708;50.872;5.306;2023-02-01T08:08:48;21.00;54.10
27188;DHT22;14708;50.872;5.306;2023-02-01T08:11:16;21.10;54.40
27188;DHT22;14708;50.872;5.306;2023-02-01T08:13:42;21.10;54.50
27188;DHT22;14708;50.872;5.306;2023-02-01T08:16:10;21.20;54.70
27188;DHT22;14708;50.872;5.306;2023-02-01T08:18:37;21.20;54.80
27188;DHT22;14708;50.872;5.306;2023-02-01T08:21:12;21.30;54.90
27188;DHT22;14708;50.872;5.306;2023-02-01T08:23:39;21.40;54.60
27188;DHT22;14708;50.872;5.306;2023-02-01T08:26:24;21.50;54.80
27188;DHT22;14708;50.872;5.306;2023-02-01T08:28:56;21.50;55.00
27188;DHT22;14708;50.872;5.306;2023-02-01T08:31:23;21.50;55.10
27188;DHT22;14708;50.872;5.306;2023-02-01T08:33:51;21.60;55.50
27188;DHT22;14708;50.872;5.306;2023-02-01T08:36:17;21.60;55.20
27188;DHT22;14708;50.872;5.306;2023-02-01T08:38:42;21.60;55.20
27188;DHT22;14708;50.872;5.306;2023-02-01T08:41:11;21.60;55.60
27188;DHT22;14708;50.872;5.306;2023-02-01T08:43:42;21.60;55.30
27188;DHT22;14708;50.872;5.306;2023-02-01T08:46:08;21.60;55.30
27188;DHT22;14708;50.872;5.306;2023-02-01T08:48:34;21.60;54.40
27188;DHT22;14708;50.872;5.306;2023-02-01T08:51:02;21.50;54.10
27188;DHT22;14708;50.872;5.306;2023-02-01T08:53:28;21.50;54.80
27188;DHT22;14708;50.872;5.306;2023-02-01T08:55:54;21.50;54.90
27188;DHT22;14708;50.872;5.306;2023-02-01T08:58:20;21.50;55.20
27188;DHT22;14708;50.872;5.306;2023-02-01T09:00:47;21.50;55.30
27188;DHT22;14708;50.872;5.306;2023-02-01T09:03:16;21.60;55.50
27188;DHT22;14708;50.872;5.306;2023-02-01T09:05:42;21.70;56.00
27188;DHT22;14708;50.872;5.306;2023-02-01T09:08:08;21.80;55.90
27188;DHT22;14708;50.872;5.306;2023-02-01T09:10:34;21.80;55.50
27188;DHT22;14708;50.872;5.306;2023-02-01T09:13:00;21.90;55.50
27188;DHT22;14708;50.872;5.306;2023-02-01T09:15:26;21.90;55.30
27188;DHT22;14708;50.872;5.306;2023-02-01T09:17:52;22.00;54.90
27188;DHT22;14708;50.872;5.306;2023-02-01T09:20:17;22.10;54.90
27188;DHT22;14708;50.872;5.306;2023-02-01T09:22:47;22.10;55.00
27188;DHT22;14708;50.872;5.306;2023-02-01T09:25:13;22.10;55.20
27188;DHT22;14708;50.872;5.306;2023-02-01T09:27:39;22.10;55.20
27188;DHT22;14708;50.872;5.306;2023-02-01T09:30:05;22.10;55.60
27188;DHT22;14708;50.872;5.306;2023-02-01T09:32:30;22.10;55.60
27188;DHT22;14708;50.872;5.306;2023-02-01T09:34:56;22.10;55.70
27188;DHT22;14708;50.872;5.306;2023-02-01T09:37:22;22.00;55.70
27188;DHT22;14708;50.872;5.306;2023-02-01T09:40:03;21.90;55.50
27188;DHT22;14708;50.872;5.306;2023-02-01T09:42:45;21.90;55.60
27188;DHT22;14708;50.872;5.306;2023-02-01T09:48:21;21.80;51.60
27188;DHT22;14708;50.872;5.306;2023-02-01T09:50:55;21.70;50.90
27188;DHT22;14708;50.872;5.306;2023-02-01T09:56:33;21.90;53.40
27188;DHT22;14708;50.872;5.306;2023-02-01T10:01:56;22.00;54.80
27188;DHT22;14708;50.872;5.306;2023-02-01T10:04:29;22.10;53.90
27188;DHT22;14708;50.872;5.306;2023-02-01T10:07:02;22.10;54.90
27188;DHT22;14708;50.872;5.306;2023-02-01T10:15:23;22.30;55.50
27188;DHT22;14708;50.872;5.306;2023-02-01T10:25:56;22.40;56.60
27188;DHT22;14708;50.872;5.306;2023-02-01T10:28:24;22.30;52.50
27188;DHT22;14708;50.872;5.306;2023-02-01T10:30:56;22.30;53.80
27188;DHT22;14708;50.872;5.306;2023-02-01T10:33:30;22.40;52.60
27188;DHT22;14708;50.872;5.306;2023-02-01T10:39:20;22.40;51.10
27188;DHT22;14708;50.872;5.306;2023-02-01T10:41:47;22.30;51.10
27188;DHT22;14708;50.872;5.306;2023-02-01T10:44:19;22.30;49.70
27188;DHT22;14708;50.872;5.306;2023-02-01T10:46:45;22.30;51.70
27188;DHT22;14708;50.872;5.306;2023-02-01T10:49:40;22.20;53.40
27188;DHT22;14708;50.872;5.306;2023-02-01T10:52:17;22.20;55.10
27188;DHT22;14708;50.872;5.306;2023-02-01T11:05:57;22.60;57.10
27188;DHT22;14708;50.872;5.306;2023-02-01T11:08:23;22.70;56.80
27188;DHT22;14708;50.872;5.306;2023-02-01T11:11:01;22.80;56.90
27188;DHT22;14708;50.872;5.306;2023-02-01T11:13:38;22.80;57.10
27188;DHT22;14708;50.872;5.306;2023-02-01T11:16:05;22.80;57.20
27188;DHT22;14708;50.872;5.306;2023-02-01T11:18:35;22.90;56.10
27188;DHT22;14708;50.872;5.306;2023-02-01T11:21:05;22.90;54.80
27188;DHT22;14708;50.872;5.306;2023-02-01T11:23:32;22.90;53.20
27188;DHT22;14708;50.872;5.306;2023-02-01T11:26:11;22.80;53.30
27188;DHT22;14708;50.872;5.306;2023-02-01T11:28:40;22.80;53.60
27188;DHT22;14708;50.872;5.306;2023-02-01T11:31:13;22.60;54.60
27188;DHT22;14708;50.872;5.306;2023-02-01T11:33:48;22.40;52.90
27188;DHT22;14708;50.872;5.306;2023-02-01T11:36:17;22.40;53.90
27188;DHT22;14708;50.872;5.306;2023-02-01T11:39:06;22.30;53.70
27188;DHT22;14708;50.872;5.306;2023-02-01T11:41:34;22.30;53.40
27188;DHT22;14708;50.872;5.306;2023-02-01T11:44:05;22.20;54.30
27188;DHT22;14708;50.872;5.306;2023-02-01T11:46:43;22.20;54.60
27188;DHT22;14708;50.872;5.306;2023-02-01T11:49:25;22.10;52.90
27188;DHT22;14708;50.872;5.306;2023-02-01T12:02:58;21.90;53.10
27188;DHT22;14708;50.872;5.306;2023-02-01T12:13:38;22.10;50.40
27188;DHT22;14708;50.872;5.306;2023-02-01T12:16:28;22.10;50.40
27188;DHT22;14708;50.872;5.306;2023-02-01T12:40:28;21.90;51.20
27188;DHT22;14708;50.872;5.306;2023-02-01T12:45:55;21.90;51.40
27188;DHT22;14708;50.872;5.306;2023-02-01T12:48:55;21.90;51.40
27188;DHT22;14708;50.872;5.306;2023-02-01T12:58:18;22.10;51.10
27188;DHT22;14708;50.872;5.306;2023-02-01T13:00:51;22.20;51.30
27188;DHT22;14708;50.872;5.306;2023-02-01T13:06:15;22.30;50.90
27188;DHT22;14708;50.872;5.306;2023-02-01T13:08:47;22.40;52.00
27188;DHT22;14708;50.872;5.306;2023-02-01T13:11:38;22.30;52.20
27188;DHT22;14708;50.872;5.306;2023-02-01T13:14:24;22.30;52.60
27188;DHT22;14708;50.872;5.306;2023-02-01T13:17:02;22.30;53.00
27188;DHT22;14708;50.872;5.306;2023-02-01T13:23:25;22.20;53.70
27188;DHT22;14708;50.872;5.306;2023-02-01T13:25:53;22.20;54.10
27188;DHT22;14708;50.872;5.306;2023-02-01T13:28:42;22.10;54.00
27188;DHT22;14708;50.872;5.306;2023-02-01T13:42:56;22.50;53.70
27188;DHT22;14708;50.872;5.306;2023-02-01T13:45:27;22.60;53.90
27188;DHT22;14708;50.872;5.306;2023-02-01T13:47:56;22.50;54.10
27188;DHT22;14708;50.872;5.306;2023-02-01T13:50:37;22.60;54.60
27188;DHT22;14708;50.872;5.306;2023-02-01T13:53:17;22.50;53.50
27188;DHT22;14708;50.872;5.306;2023-02-01T13:56:05;22.60;53.50
27188;DHT22;14708;50.872;5.306;2023-02-01T13:58:38;22.60;53.40
27188;DHT22;14708;50.872;5.306;2023-02-01T14:19:21;22.70;55.80
27188;DHT22;14708;50.872;5.306;2023-02-01T14:21:50;22.80;56.10
27188;DHT22;14708;50.872;5.306;2023-02-01T14:24:31;22.90;57.50
27188;DHT22;14708;50.872;5.306;2023-02-01T14:26:59;23.00;57.60
27188;DHT22;14708;50.872;5.306;2023-02-01T14:29:35;23.00;57.80
27188;DHT22;14708;50.872;5.306;2023-02-01T14:34:53;23.20;58.70
27188;DHT22;14708;50.872;5.306;2023-02-01T14:37:28;23.20;58.90
27188;DHT22;14708;50.872;5.306;2023-02-01T14:47:49;23.20;59.30
27188;DHT22;14708;50.872;5.306;2023-02-01T14:50:47;23.20;59.30
27188;DHT22;14708;50.872;5.306;2023-02-01T15:01:28;23.10;60.20
27188;DHT22;14708;50.872;5.306;2023-02-01T15:04:04;23.00;60.20
27188;DHT22;14708;50.872;5.306;2023-02-01T15:09:14;23.00;60.40
27188;DHT22;14708;50.872;5.306;2023-02-01T15:14:25;23.00;61.10
27188;DHT22;14708;50.872;5.306;2023-02-01T15:16:51;23.00;61.70
27188;DHT22;14708;50.872;5.306;2023-02-01T15:19:22;23.00;60.90
27188;DHT22;14708;50.872;5.306;2023-02-01T15:21:51;23.00;60.50
27188;DHT22;14708;50.872;5.306;2023-02-01T15:24:27;23.10;60.90
27188;DHT22;14708;50.872;5.306;2023-02-01T15:26:55;23.10;59.20
27188;DHT22;14708;50.872;5.306;2023-02-01T15:29:22;23.20;59.60
27188;DHT22;14708;50.872;5.306;2023-02-01T15:31:53;23.20;57.20
27188;DHT22;14708;50.872;5.306;2023-02-01T15:34:19;23.10;56.10
27188;DHT22;14708;50.872;5.306;2023-02-01T15:36:48;23.10;57.30
27188;DHT22;14708;50.872;5.306;2023-02-01T15:39:25;23.00;55.70
27188;DHT22;14708;50.872;5.306;2023-02-01T15:41:56;22.90;54.50
27188;DHT22;14708;50.872;5.306;2023-02-01T15:46:58;23.00;56.00
27188;DHT22;14708;50.872;5.306;2023-02-01T15:51:50;23.00;57.10
27188;DHT22;14708;50.872;5.306;2023-02-01T15:54:28;23.00;57.70
27188;DHT22;14708;50.872;5.306;2023-02-01T15:56:58;23.10;57.70
27188;DHT22;14708;50.872;5.306;2023-02-01T15:59:45;23.10;57.30
27188;DHT22;14708;50.872;5.306;2023-02-01T16:04:51;23.20;57.40
27188;DHT22;14708;50.872;5.306;2023-02-01T16:07:30;23.10;57.90
27188;DHT22;14708;50.872;5.306;2023-02-01T16:09:59;23.10;57.70
27188;DHT22;14708;50.872;5.306;2023-02-01T16:12:46;23.20;57.60
27188;DHT22;14708;50.872;5.306;2023-02-01T16:15:12;23.20;57.70
27188;DHT22;14708;50.872;5.306;2023-02-01T16:17:37;23.20;54.10
27188;DHT22;14708;50.872;5.306;2023-02-01T16:23:24;23.00;55.20
27188;DHT22;14708;50.872;5.306;2023-02-01T16:25:51;22.80;54.80
27188;DHT22;14708;50.872;5.306;2023-02-01T16:28:17;22.70;53.90
27188;DHT22;14708;50.872;5.306;2023-02-01T16:30:42;22.60;54.20
27188;DHT22;14708;50.872;5.306;2023-02-01T16:33:13;22.70;55.00
27188;DHT22;14708;50.872;5.306;2023-02-01T16:35:41;22.60;54.50
27188;DHT22;14708;50.872;5.306;2023-02-01T16:38:12;22.70;54.20
27188;DHT22;14708;50.872;5.306;2023-02-01T16:40:42;22.70;53.80
27188;DHT22;14708;50.872;5.306;2023-02-01T16:43:13;22.70;53.70
27188;DHT22;14708;50.872;5.306;2023-02-01T16:45:42;22.60;54.10
27188;DHT22;14708;50.872;5.306;2023-02-01T16:48:25;22.60;54.60
27188;DHT22;14708;50.872;5.306;2023-02-01T16:50:55;22.70;54.20
27188;DHT22;14708;50.872;5.306;2023-02-01T16:53:23;22.70;54.40
27188;DHT22;14708;50.872;5.306;2023-02-01T16:55:49;22.60;54.30
27188;DHT22;14708;50.872;5.306;2023-02-01T16:58:16;22.50;54.90
27188;DHT22;14708;50.872;5.306;2023-02-01T17:00:42;22.50;54.80
27188;DHT22;14708;50.872;5.306;2023-02-01T17:03:10;22.50;54.30
27188;DHT22;14708;50.872;5.306;2023-02-01T17:05:36;22.50;54.70
27188;DHT22;14708;50.872;5.306;2023-02-01T17:08:05;22.50;55.30
27188;DHT22;14708;50.872;5.306;2023-02-01T17:10:32;22.40;56.20
27188;DHT22;14708;50.872;5.306;2023-02-01T17:12:57;22.40;56.20
27188;DHT22;14708;50.872;5.306;2023-02-01T17:15:29;22.30;56.20
27188;DHT22;14708;50.872;5.306;2023-02-01T17:17:56;22.30;56.50
27188;DHT22;14708;50.872;5.306;2023-02-01T17:20:24;22.20;56.40
27188;DHT22;14708;50.872;5.306;2023-02-01T17:22:52;22.20;56.90
27188;DHT22;14708;50.872;5.306;2023-02-01T17:25:19;22.30;57.00
27188;DHT22;14708;50.872;5.306;2023-02-01T17:27:47;22.40;57.00
27188;DHT22;14708;50.872;5.306;2023-02-01T17:30:13;22.40;56.90
27188;DHT22;14708;50.872;5.306;2023-02-01T17:32:39;22.50;56.80
27188;DHT22;14708;50.872;5.306;2023-02-01T17:35:09;22.50;56.70
27188;DHT22;14708;50.872;5.306;2023-02-01T17:37:36;22.50;56.70
27188;DHT22;14708;50.872;5.306;2023-02-01T17:40:02;22.50;56.70
27188;DHT22;14708;50.872;5.306;2023-02-01T17:42:29;22.50;56.80
27188;DHT22;14708;50.872;5.306;2023-02-01T17:45:27;22.40;56.90
27188;DHT22;14708;50.872;5.306;2023-02-01T17:47:57;22.40;56.80
27188;DHT22;14708;50.872;5.306;2023-02-01T17:50:26;22.40;56.90
27188;DHT22;14708;50.872;5.306;2023-02-01T17:52:52;22.30;57.10
27188;DHT22;14708;50.872;5.306;2023-02-01T17:55:19;22.30;56.00
27188;DHT22;14708;50.872;5.306;2023-02-01T17:57:47;22.40;56.30
27188;DHT22;14708;50.872;5.306;2023-02-01T18:00:14;22.40;56.30
27188;DHT22;14708;50.872;5.306;2023-02-01T18:02:41;22.40;56.80
27188;DHT22;14708;50.872;5.306;2023-02-01T18:07:58;22.30;57.10
27188;DHT22;14708;50.872;5.306;2023-02-01T18:10:24;22.40;57.00
27188;DHT22;14708;50.872;5.306;2023-02-01T18:12:49;22.50;56.90
27188;DHT22;14708;50.872;5.306;2023-02-01T18:15:17;22.50;56.90
27188;DHT22;14708;50.872;5.306;2023-02-01T18:17:43;22.60;57.00
27188;DHT22;14708;50.872;5.306;2023-02-01T18:20:17;22.50;55.20
27188;DHT22;14708;50.872;5.306;2023-02-01T18:22:43;22.60;56.10
27188;DHT22;14708;50.872;5.306;2023-02-01T18:25:21;22.60;58.60
27188;DHT22;14708;50.872;5.306;2023-02-01T18:27:48;22.60;59.30
27188;DHT22;14708;50.872;5.306;2023-02-01T18:30:15;22.60;58.10
27188;DHT22;14708;50.872;5.306;2023-02-01T18:32:43;22.50;58.30
27188;DHT22;14708;50.872;5.306;2023-02-01T18:35:18;22.40;58.50
27188;DHT22;14708;50.872;5.306;2023-02-01T18:37:44;22.40;58.70
27188;DHT22;14708;50.872;5.306;2023-02-01T18:40:13;22.40;58.80
27188;DHT22;14708;50.872;5.306;2023-02-01T18:42:40;22.40;59.20
27188;DHT22;14708;50.872;5.306;2023-02-01T18:45:21;22.30;59.20
27188;DHT22;14708;50.872;5.306;2023-02-01T18:47:48;22.30;59.40
27188;DHT22;14708;50.872;5.306;2023-02-01T18:50:14;22.30;59.30
27188;DHT22;14708;50.872;5.306;2023-02-01T18:52:40;22.40;59.10
27188;DHT22;14708;50.872;5.306;2023-02-01T18:55:05;22.40;59.10
27188;DHT22;14708;50.872;5.306;2023-02-01T18:57:32;22.50;58.60
27188;DHT22;14708;50.872;5.306;2023-02-01T19:00:02;22.50;58.50
27188;DHT22;14708;50.872;5.306;2023-02-01T19:02:28;22.60;58.50
27188;DHT22;14708;50.872;5.306;2023-02-01T19:04:54;22.70;57.90
27188;DHT22;14708;50.872;5.306;2023-02-01T19:07:19;22.60;57.90
27188;DHT22;14708;50.872;5.306;2023-02-01T19:09:45;22.60;58.10
27188;DHT22;14708;50.872;5.306;2023-02-01T19:12:11;22.60;58.30
27188;DHT22;14708;50.872;5.306;2023-02-01T19:14:36;22.60;58.60
27188;DHT22;14708;50.872;5.306;2023-02-01T19:17:02;22.40;58.70
27188;DHT22;14708;50.872;5.306;2023-02-01T19:26:14;22.50;58.40
27188;DHT22;14708;50.872;5.306;2023-02-01T19:28:40;22.50;58.10
27188;DHT22;14708;50.872;5.306;2023-02-01T19:31:07;22.60;58.40
27188;DHT22;14708;50.872;5.306;2023-02-01T19:33:33;22.50;58.30
27188;DHT22;14708;50.872;5.306;2023-02-01T19:36:00;22.50;58.40
27188;DHT22;14708;50.872;5.306;2023-02-01T19:38:29;22.50;58.30
27188;DHT22;14708;50.872;5.306;2023-02-01T19:41:00;22.60;58.20
27188;DHT22;14708;50.872;5.306;2023-02-01T19:43:26;22.50;58.30
27188;DHT22;14708;50.872;5.306;2023-02-01T19:45:53;22.40;58.50
27188;DHT22;14708;50.872;5.306;2023-02-01T19:48:18;22.40;58.60
27188;DHT22;14708;50.872;5.306;2023-02-01T19:50:44;22.40;58.70
27188;DHT22;14708;50.872;5.306;2023-02-01T19:53:11;22.50;58.40